sensor_id;sensor_type;location;lat;lon;timestamp;P1;durP1;ratioP1;P2;durP2;ratioP2
4839;SDS011;2434;48.486;7.964;2024-01-11T00:01:45;53.43;;;28.27;;
4839;SDS011;2434;48.486;7.964;2024-01-11T00:04:14;45.73;;;26.00;;
4839;SDS011;2434;48.486;7.964;2024-01-11T00:06:42;50.43;;;27.03;;
4839;SDS011;2434;48.486;7.964;2024-01-11T00:09:11;54.63;;;28.15;;
4839;SDS011;2434;48.486;7.964;2024-01-11T00:11:39;50.53;;;27.53;;
4839;SDS011;2434;48.486;7.964;2024-01-11T00:14:07;45.70;;;26.30;;
4839;SDS011;2434;48.486;7.964;2024-01-11T00:16:35;49.97;;;26.50;;
4839;SDS011;2434;48.486;7.964;2024-01-11T00:19:04;49.83;;;25.30;;
4839;SDS011;2434;48.486;7.964;2024-01-11T00:21:33;47.50;;;24.57;;
4839;SDS011;2434;48.486;7.964;2024-01-11T00:24:04;54.60;;;26.57;;
4839;SDS011;2434;48.486;7.964;2024-01-11T00:26:32;53.93;;;30.57;;
4839;SDS011;2434;48.486;7.964;2024-01-11T00:29:00;53.20;;;28.97;;
4839;SDS011;2434;48.486;7.964;2024-01-11T00:31:28;60.07;;;29.70;;
4839;SDS011;2434;48.486;7.964;2024-01-11T00:33:56;51.80;;;28.27;;
4839;SDS011;2434;48.486;7.964;2024-01-11T00:36:26;49.23;;;27.13;;
4839;SDS011;2434;48.486;7.964;2024-01-11T00:38:55;52.30;;;26.43;;
4839;SDS011;2434;48.486;7.964;2024-01-11T00:41:24;48.80;;;25.60;;
4839;SDS011;2434;48.486;7.964;2024-01-11T00:43:52;50.53;;;25.50;;
4839;SDS011;2434;48.486;7.964;2024-01-11T00:46:20;53.70;;;26.20;;
4839;SDS011;2434;48.486;7.964;2024-01-11T00:48:48;47.40;;;24.80;;
4839;SDS011;2434;48.486;7.964;2024-01-11T00:51:21;44.90;;;26.30;;
4839;SDS011;2434;48.486;7.964;2024-01-11T00:53:51;52.00;;;26.40;;
4839;SDS011;2434;48.486;7.964;2024-01-11T00:56:19;40.40;;;24.73;;
4839;SDS011;2434;48.486;7.964;2024-01-11T00:58:47;52.00;;;25.80;;
4839;SDS011;2434;48.486;7.964;2024-01-11T01:01:15;46.30;;;24.70;;
4839;SDS011;2434;48.486;7.964;2024-01-11T01:03:43;45.23;;;23.13;;
4839;SDS011;2434;48.486;7.964;2024-01-11T01:06:12;46.67;;;24.47;;
4839;SDS011;2434;48.486;7.964;2024-01-11T01:08:40;42.67;;;23.23;;
4839;SDS011;2434;48.486;7.964;2024-01-11T01:11:09;43.67;;;23.00;;
4839;SDS011;2434;48.486;7.964;2024-01-11T01:13:37;45.17;;;24.10;;
4839;SDS011;2434;48.486;7.964;2024-01-11T01:16:05;51.10;;;25.23;;
4839;SDS011;2434;48.486;7.964;2024-01-11T01:18:33;48.90;;;24.43;;
4839;SDS011;2434;48.486;7.964;2024-01-11T01:21:02;47.87;;;23.70;;
4839;SDS011;2434;48.486;7.964;2024-01-11T01:23:33;45.20;;;23.93;;
4839;SDS011;2434;48.486;7.964;2024-01-11T01:26:01;45.27;;;25.83;;
4839;SDS011;2434;48.486;7.964;2024-01-11T01:28:34;47.33;;;25.37;;
4839;SDS011;2434;48.486;7.964;2024-01-11T01:31:02;53.47;;;25.10;;
4839;SDS011;2434;48.486;7.964;2024-01-11T01:33:30;49.13;;;25.40;;
4839;SDS011;2434;48.486;7.964;2024-01-11T01:35:59;44.50;;;23.23;;
4839;SDS011;2434;48.486;7.964;2024-01-11T01:38:27;46.60;;;23.70;;
4839;SDS011;2434;48.486;7.964;2024-01-11T01:40:57;42.20;;;25.13;;
4839;SDS011;2434;48.486;7.964;2024-01-11T01:43:25;45.40;;;23.30;;
4839;SDS011;2434;48.486;7.964;2024-01-11T01:45:54;43.60;;;23.37;;
4839;SDS011;2434;48.486;7.964;2024-01-11T01:48:23;48.87;;;25.53;;
4839;SDS011;2434;48.486;7.964;2024-01-11T01:50:51;54.23;;;23.80;;
4839;SDS011;2434;48.486;7.964;2024-01-11T01:53:19;48.80;;;25.10;;
4839;SDS011;2434;48.486;7.964;2024-01-11T01:55:49;46.87;;;25.07;;
4839;SDS011;2434;48.486;7.964;2024-01-11T01:58:19;49.50;;;23.60;;
4839;SDS011;2434;48.486;7.964;2024-01-11T02:00:48;47.40;;;24.50;;
4839;SDS011;2434;48.486;7.964;2024-01-11T02:03:19;52.70;;;25.17;;
4839;SDS011;2434;48.486;7.964;2024-01-11T02:05:47;52.70;;;25.10;;
4839;SDS011;2434;48.486;7.964;2024-01-11T02:08:16;52.67;;;24.70;;
4839;SDS011;2434;48.486;7.964;2024-01-11T02:10:46;49.53;;;24.80;;
4839;SDS011;2434;48.486;7.964;2024-01-11T02:13:15;49.10;;;24.60;;
4839;SDS011;2434;48.486;7.964;2024-01-11T02:15:43;44.07;;;24.97;;
4839;SDS011;2434;48.486;7.964;2024-01-11T02:18:12;58.53;;;26.40;;
4839;SDS011;2434;48.486;7.964;2024-01-11T02:20:42;42.27;;;22.83;;
4839;SDS011;2434;48.486;7.964;2024-01-11T02:23:12;46.37;;;24.10;;
4839;SDS011;2434;48.486;7.964;2024-01-11T02:25:44;51.57;;;27.07;;
4839;SDS011;2434;48.486;7.964;2024-01-11T02:28:12;46.77;;;24.27;;
4839;SDS011;2434;48.486;7.964;2024-01-11T02:30:40;44.87;;;24.57;;
4839;SDS011;2434;48.486;7.964;2024-01-11T02:33:09;49.53;;;25.27;;
4839;SDS011;2434;48.486;7.964;2024-01-11T02:35:38;46.10;;;27.37;;
4839;SDS011;2434;48.486;7.964;2024-01-11T02:38:13;48.80;;;24.20;;
4839;SDS011;2434;48.486;7.964;2024-01-11T02:40:41;49.03;;;24.60;;
4839;SDS011;2434;48.486;7.964;2024-01-11T02:43:12;42.40;;;22.97;;
4839;SDS011;2434;48.486;7.964;2024-01-11T02:45:41;50.00;;;26.10;;
4839;SDS011;2434;48.486;7.964;2024-01-11T02:48:08;49.63;;;24.87;;
4839;SDS011;2434;48.486;7.964;2024-01-11T02:50:37;46.90;;;24.87;;
4839;SDS011;2434;48.486;7.964;2024-01-11T02:53:05;56.53;;;25.80;;
4839;SDS011;2434;48.486;7.964;2024-01-11T02:55:33;43.40;;;23.00;;
4839;SDS011;2434;48.486;7.964;2024-01-11T02:58:01;42.60;;;23.60;;
4839;SDS011;2434;48.486;7.964;2024-01-11T03:00:30;48.83;;;24.80;;
4839;SDS011;2434;48.486;7.964;2024-01-11T03:02:58;43.40;;;23.87;;
4839;SDS011;2434;48.486;7.964;2024-01-11T03:05:27;53.33;;;25.40;;
4839;SDS011;2434;48.486;7.964;2024-01-11T03:07:55;49.90;;;24.40;;
4839;SDS011;2434;48.486;7.964;2024-01-11T03:10:23;49.70;;;23.87;;
4839;SDS011;2434;48.486;7.964;2024-01-11T03:12:51;45.67;;;24.87;;
4839;SDS011;2434;48.486;7.964;2024-01-11T03:15:19;47.63;;;25.30;;
4839;SDS011;2434;48.486;7.964;2024-01-11T03:17:48;45.00;;;23.70;;
4839;SDS011;2434;48.486;7.964;2024-01-11T03:20:16;47.33;;;24.90;;
4839;SDS011;2434;48.486;7.964;2024-01-11T03:22:48;52.10;;;27.10;;
4839;SDS011;2434;48.486;7.964;2024-01-11T03:25:16;47.67;;;25.90;;
4839;SDS011;2434;48.486;7.964;2024-01-11T03:27:44;49.53;;;26.37;;
4839;SDS011;2434;48.486;7.964;2024-01-11T03:30:12;53.23;;;24.30;;
4839;SDS011;2434;48.486;7.964;2024-01-11T03:32:41;45.77;;;23.40;;
4839;SDS011;2434;48.486;7.964;2024-01-11T03:35:11;46.17;;;23.10;;
4839;SDS011;2434;48.486;7.964;2024-01-11T03:37:39;42.37;;;24.10;;
4839;SDS011;2434;48.486;7.964;2024-01-11T03:40:07;46.10;;;24.30;;
4839;SDS011;2434;48.486;7.964;2024-01-11T03:42:35;46.70;;;23.33;;
4839;SDS011;2434;48.486;7.964;2024-01-11T03:45:04;46.03;;;22.30;;
4839;SDS011;2434;48.486;7.964;2024-01-11T03:47:32;38.80;;;21.90;;
4839;SDS011;2434;48.486;7.964;2024-01-11T03:50:00;47.73;;;23.60;;
4839;SDS011;2434;48.486;7.964;2024-01-11T03:52:30;43.63;;;24.20;;
4839;SDS011;2434;48.486;7.964;2024-01-11T03:54:58;51.30;;;25.57;;
4839;SDS011;2434;48.486;7.964;2024-01-11T03:57:26;49.03;;;24.97;;
4839;SDS011;2434;48.486;7.964;2024-01-11T03:59:54;51.20;;;27.30;;
4839;SDS011;2434;48.486;7.964;2024-01-11T04:02:22;46.47;;;24.33;;
4839;SDS011;2434;48.486;7.964;2024-01-11T04:04:50;56.57;;;26.57;;
4839;SDS011;2434;48.486;7.964;2024-01-11T04:07:18;51.23;;;25.27;;
4839;SDS011;2434;48.486;7.964;2024-01-11T04:09:47;42.50;;;24.43;;
4839;SDS011;2434;48.486;7.964;2024-01-11T04:12:15;54.53;;;25.90;;
4839;SDS011;2434;48.486;7.964;2024-01-11T04:14:43;52.03;;;25.70;;
4839;SDS011;2434;48.486;7.964;2024-01-11T04:17:11;56.20;;;25.17;;
4839;SDS011;2434;48.486;7.964;2024-01-11T04:19:39;44.80;;;24.53;;
4839;SDS011;2434;48.486;7.964;2024-01-11T04:22:07;46.83;;;25.90;;
4839;SDS011;2434;48.486;7.964;2024-01-11T04:24:35;51.17;;;25.03;;
4839;SDS011;2434;48.486;7.964;2024-01-11T04:27:05;46.60;;;26.50;;
4839;SDS011;2434;48.486;7.964;2024-01-11T04:29:33;47.57;;;24.93;;
4839;SDS011;2434;48.486;7.964;2024-01-11T04:32:01;44.97;;;23.33;;
4839;SDS011;2434;48.486;7.964;2024-01-11T04:34:29;48.37;;;25.03;;
4839;SDS011;2434;48.486;7.964;2024-01-11T04:36:58;45.57;;;24.57;;
4839;SDS011;2434;48.486;7.964;2024-01-11T04:39:26;50.17;;;25.40;;
4839;SDS011;2434;48.486;7.964;2024-01-11T04:41:54;42.53;;;24.03;;
4839;SDS011;2434;48.486;7.964;2024-01-11T04:44:23;49.43;;;25.10;;
4839;SDS011;2434;48.486;7.964;2024-01-11T04:46:53;43.50;;;24.87;;
4839;SDS011;2434;48.486;7.964;2024-01-11T04:49:21;45.33;;;22.17;;
4839;SDS011;2434;48.486;7.964;2024-01-11T04:51:50;49.77;;;23.37;;
4839;SDS011;2434;48.486;7.964;2024-01-11T04:54:18;41.57;;;23.60;;
4839;SDS011;2434;48.486;7.964;2024-01-11T04:56:46;48.55;;;24.92;;
4839;SDS011;2434;48.486;7.964;2024-01-11T04:59:14;47.93;;;25.77;;
4839;SDS011;2434;48.486;7.964;2024-01-11T05:01:43;48.57;;;25.87;;
4839;SDS011;2434;48.486;7.964;2024-01-11T05:04:13;54.83;;;26.80;;
4839;SDS011;2434;48.486;7.964;2024-01-11T05:06:41;46.03;;;26.10;;
4839;SDS011;2434;48.486;7.964;2024-01-11T05:09:09;42.17;;;24.97;;
4839;SDS011;2434;48.486;7.964;2024-01-11T05:11:36;45.17;;;24.47;;
4839;SDS011;2434;48.486;7.964;2024-01-11T05:14:05;47.15;;;25.88;;
4839;SDS011;2434;48.486;7.964;2024-01-11T05:16:33;46.73;;;24.00;;
4839;SDS011;2434;48.486;7.964;2024-01-11T05:19:03;42.97;;;24.97;;
4839;SDS011;2434;48.486;7.964;2024-01-11T05:21:31;48.60;;;26.33;;
4839;SDS011;2434;48.486;7.964;2024-01-11T05:23:59;48.20;;;23.17;;
4839;SDS011;2434;48.486;7.964;2024-01-11T05:26:27;48.50;;;24.80;;
4839;SDS011;2434;48.486;7.964;2024-01-11T05:28:56;46.60;;;24.73;;
4839;SDS011;2434;48.486;7.964;2024-01-11T05:31:24;53.83;;;24.50;;
4839;SDS011;2434;48.486;7.964;2024-01-11T05:33:52;44.03;;;24.33;;
4839;SDS011;2434;48.486;7.964;2024-01-11T05:36:22;49.07;;;24.43;;
4839;SDS011;2434;48.486;7.964;2024-01-11T05:38:50;45.37;;;25.10;;
4839;SDS011;2434;48.486;7.964;2024-01-11T05:41:18;41.47;;;23.30;;
4839;SDS011;2434;48.486;7.964;2024-01-11T05:43:46;45.07;;;23.60;;
4839;SDS011;2434;48.486;7.964;2024-01-11T05:46:14;42.30;;;23.27;;
4839;SDS011;2434;48.486;7.964;2024-01-11T05:48:42;50.37;;;24.97;;
4839;SDS011;2434;48.486;7.964;2024-01-11T05:51:10;42.00;;;22.40;;
4839;SDS011;2434;48.486;7.964;2024-01-11T05:53:39;52.00;;;23.80;;
4839;SDS011;2434;48.486;7.964;2024-01-11T05:56:08;44.30;;;24.33;;
4839;SDS011;2434;48.486;7.964;2024-01-11T05:58:36;45.80;;;23.50;;
4839;SDS011;2434;48.486;7.964;2024-01-11T06:01:05;54.63;;;23.20;;
4839;SDS011;2434;48.486;7.964;2024-01-11T06:03:33;47.70;;;24.30;;
4839;SDS011;2434;48.486;7.964;2024-01-11T06:06:02;41.80;;;22.57;;
4839;SDS011;2434;48.486;7.964;2024-01-11T06:08:31;53.27;;;23.87;;
4839;SDS011;2434;48.486;7.964;2024-01-11T06:11:00;48.33;;;24.50;;
4839;SDS011;2434;48.486;7.964;2024-01-11T06:13:28;42.47;;;24.23;;
4839;SDS011;2434;48.486;7.964;2024-01-11T06:15:56;47.33;;;25.67;;
4839;SDS011;2434;48.486;7.964;2024-01-11T06:18:24;64.65;;;36.00;;
4839;SDS011;2434;48.486;7.964;2024-01-11T06:20:52;78.47;;;41.60;;
4839;SDS011;2434;48.486;7.964;2024-01-11T06:23:20;66.38;;;38.20;;
4839;SDS011;2434;48.486;7.964;2024-01-11T06:25:49;68.23;;;34.47;;
4839;SDS011;2434;48.486;7.964;2024-01-11T06:28:18;61.80;;;34.13;;
4839;SDS011;2434;48.486;7.964;2024-01-11T06:30:46;58.67;;;31.27;;
4839;SDS011;2434;48.486;7.964;2024-01-11T06:33:14;52.03;;;28.20;;
4839;SDS011;2434;48.486;7.964;2024-01-11T06:35:43;55.92;;;27.65;;
4839;SDS011;2434;48.486;7.964;2024-01-11T06:38:11;52.38;;;28.15;;
4839;SDS011;2434;48.486;7.964;2024-01-11T06:40:39;57.38;;;28.05;;
4839;SDS011;2434;48.486;7.964;2024-01-11T06:43:07;56.83;;;29.03;;
4839;SDS011;2434;48.486;7.964;2024-01-11T06:45:36;53.67;;;27.93;;
4839;SDS011;2434;48.486;7.964;2024-01-11T06:48:05;50.17;;;28.10;;
4839;SDS011;2434;48.486;7.964;2024-01-11T06:50:34;53.95;;;28.08;;
4839;SDS011;2434;48.486;7.964;2024-01-11T06:53:02;56.53;;;28.67;;
4839;SDS011;2434;48.486;7.964;2024-01-11T06:55:31;52.95;;;27.80;;
4839;SDS011;2434;48.486;7.964;2024-01-11T06:57:59;48.43;;;24.73;;
4839;SDS011;2434;48.486;7.964;2024-01-11T07:00:28;54.37;;;25.80;;
4839;SDS011;2434;48.486;7.964;2024-01-11T07:02:57;48.80;;;26.90;;
4839;SDS011;2434;48.486;7.964;2024-01-11T07:05:25;51.20;;;28.07;;
4839;SDS011;2434;48.486;7.964;2024-01-11T07:07:53;50.93;;;28.73;;
4839;SDS011;2434;48.486;7.964;2024-01-11T07:10:21;51.20;;;27.23;;
4839;SDS011;2434;48.486;7.964;2024-01-11T07:12:49;51.87;;;28.80;;
4839;SDS011;2434;48.486;7.964;2024-01-11T07:15:17;60.07;;;32.17;;
4839;SDS011;2434;48.486;7.964;2024-01-11T07:17:45;55.70;;;29.73;;
4839;SDS011;2434;48.486;7.964;2024-01-11T07:20:15;53.63;;;27.43;;
4839;SDS011;2434;48.486;7.964;2024-01-11T07:22:45;53.30;;;27.50;;
4839;SDS011;2434;48.486;7.964;2024-01-11T07:25:13;59.33;;;28.15;;
4839;SDS011;2434;48.486;7.964;2024-01-11T07:27:41;60.27;;;29.30;;
4839;SDS011;2434;48.486;7.964;2024-01-11T07:30:10;54.30;;;27.73;;
4839;SDS011;2434;48.486;7.964;2024-01-11T07:32:39;59.47;;;28.35;;
4839;SDS011;2434;48.486;7.964;2024-01-11T07:35:07;69.07;;;32.03;;
4839;SDS011;2434;48.486;7.964;2024-01-11T07:37:42;55.25;;;30.38;;
4839;SDS011;2434;48.486;7.964;2024-01-11T07:40:11;51.10;;;28.38;;
4839;SDS011;2434;48.486;7.964;2024-01-11T07:42:40;47.33;;;25.45;;
4839;SDS011;2434;48.486;7.964;2024-01-11T07:45:08;49.97;;;24.80;;
4839;SDS011;2434;48.486;7.964;2024-01-11T07:47:37;46.83;;;24.35;;
4839;SDS011;2434;48.486;7.964;2024-01-11T07:50:06;51.70;;;25.20;;
4839;SDS011;2434;48.486;7.964;2024-01-11T07:52:36;47.88;;;24.20;;
4839;SDS011;2434;48.486;7.964;2024-01-11T07:55:06;44.78;;;23.77;;
4839;SDS011;2434;48.486;7.964;2024-01-11T07:57:36;46.97;;;24.17;;
4839;SDS011;2434;48.486;7.964;2024-01-11T08:00:05;48.00;;;23.80;;
4839;SDS011;2434;48.486;7.964;2024-01-11T08:02:39;46.28;;;24.63;;
4839;SDS011;2434;48.486;7.964;2024-01-11T08:05:08;51.03;;;22.80;;
4839;SDS011;2434;48.486;7.964;2024-01-11T08:07:36;43.20;;;23.55;;
4839;SDS011;2434;48.486;7.964;2024-01-11T08:10:06;46.27;;;25.27;;
4839;SDS011;2434;48.486;7.964;2024-01-11T08:12:35;48.83;;;23.50;;
4839;SDS011;2434;48.486;7.964;2024-01-11T08:15:04;42.05;;;22.65;;
4839;SDS011;2434;48.486;7.964;2024-01-11T08:17:32;52.25;;;24.85;;
4839;SDS011;2434;48.486;7.964;2024-01-11T08:20:03;43.45;;;23.88;;
4839;SDS011;2434;48.486;7.964;2024-01-11T08:22:34;45.27;;;23.80;;
4839;SDS011;2434;48.486;7.964;2024-01-11T08:25:03;55.33;;;26.25;;
4839;SDS011;2434;48.486;7.964;2024-01-11T08:27:34;49.30;;;25.70;;
4839;SDS011;2434;48.486;7.964;2024-01-11T08:30:02;45.92;;;25.63;;
4839;SDS011;2434;48.486;7.964;2024-01-11T08:32:32;53.83;;;27.63;;
4839;SDS011;2434;48.486;7.964;2024-01-11T08:35:05;54.90;;;26.40;;
4839;SDS011;2434;48.486;7.964;2024-01-11T08:37:36;51.30;;;27.08;;
4839;SDS011;2434;48.486;7.964;2024-01-11T08:40:06;58.15;;;27.00;;
4839;SDS011;2434;48.486;7.964;2024-01-11T08:42:35;54.13;;;27.38;;
4839;SDS011;2434;48.486;7.964;2024-01-11T08:45:04;58.25;;;30.58;;
4839;SDS011;2434;48.486;7.964;2024-01-11T08:47:33;54.38;;;28.17;;
4839;SDS011;2434;48.486;7.964;2024-01-11T08:50:02;51.10;;;28.42;;
4839;SDS011;2434;48.486;7.964;2024-01-11T08:52:32;53.00;;;27.90;;
4839;SDS011;2434;48.486;7.964;2024-01-11T08:55:00;50.90;;;26.63;;
4839;SDS011;2434;48.486;7.964;2024-01-11T08:57:30;50.57;;;26.57;;
4839;SDS011;2434;48.486;7.964;2024-01-11T08:59:58;51.40;;;28.10;;
4839;SDS011;2434;48.486;7.964;2024-01-11T09:02:26;51.67;;;28.80;;
4839;SDS011;2434;48.486;7.964;2024-01-11T09:04:54;53.92;;;27.88;;
4839;SDS011;2434;48.486;7.964;2024-01-11T09:07:22;49.43;;;25.73;;
4839;SDS011;2434;48.486;7.964;2024-01-11T09:09:50;48.60;;;26.60;;
4839;SDS011;2434;48.486;7.964;2024-01-11T09:12:23;58.80;;;27.77;;
4839;SDS011;2434;48.486;7.964;2024-01-11T09:14:52;65.10;;;29.47;;
4839;SDS011;2434;48.486;7.964;2024-01-11T09:17:21;55.47;;;27.97;;
4839;SDS011;2434;48.486;7.964;2024-01-11T09:19:49;52.17;;;27.77;;
4839;SDS011;2434;48.486;7.964;2024-01-11T09:22:18;54.43;;;29.40;;
4839;SDS011;2434;48.486;7.964;2024-01-11T09:24:46;55.53;;;28.50;;
4839;SDS011;2434;48.486;7.964;2024-01-11T09:27:14;52.60;;;28.52;;
4839;SDS011;2434;48.486;7.964;2024-01-11T09:29:42;50.87;;;29.03;;
4839;SDS011;2434;48.486;7.964;2024-01-11T09:32:13;54.33;;;29.20;;
4839;SDS011;2434;48.486;7.964;2024-01-11T09:34:41;54.20;;;27.30;;
4839;SDS011;2434;48.486;7.964;2024-01-11T09:37:12;54.80;;;29.70;;
4839;SDS011;2434;48.486;7.964;2024-01-11T09:39:39;60.80;;;32.27;;
4839;SDS011;2434;48.486;7.964;2024-01-11T09:42:09;62.87;;;33.10;;
4839;SDS011;2434;48.486;7.964;2024-01-11T09:44:37;64.27;;;34.10;;
4839;SDS011;2434;48.486;7.964;2024-01-11T09:47:08;61.00;;;32.73;;
4839;SDS011;2434;48.486;7.964;2024-01-11T09:49:43;62.50;;;33.90;;
4839;SDS011;2434;48.486;7.964;2024-01-11T09:52:12;62.20;;;33.00;;
4839;SDS011;2434;48.486;7.964;2024-01-11T09:54:43;62.60;;;33.20;;
4839;SDS011;2434;48.486;7.964;2024-01-11T09:57:11;59.67;;;31.80;;
4839;SDS011;2434;48.486;7.964;2024-01-11T09:59:40;60.60;;;31.87;;
4839;SDS011;2434;48.486;7.964;2024-01-11T10:02:10;54.03;;;31.17;;
4839;SDS011;2434;48.486;7.964;2024-01-11T10:04:40;60.17;;;31.43;;
4839;SDS011;2434;48.486;7.964;2024-01-11T10:07:11;59.60;;;33.33;;
4839;SDS011;2434;48.486;7.964;2024-01-11T10:09:41;60.50;;;33.53;;
4839;SDS011;2434;48.486;7.964;2024-01-11T10:12:10;60.70;;;30.67;;
4839;SDS011;2434;48.486;7.964;2024-01-11T10:14:38;56.93;;;32.00;;
4839;SDS011;2434;48.486;7.964;2024-01-11T10:17:06;66.67;;;32.80;;
4839;SDS011;2434;48.486;7.964;2024-01-11T10:19:38;69.33;;;33.73;;
4839;SDS011;2434;48.486;7.964;2024-01-11T10:22:08;59.70;;;32.00;;
4839;SDS011;2434;48.486;7.964;2024-01-11T10:24:39;61.47;;;32.73;;
4839;SDS011;2434;48.486;7.964;2024-01-11T10:27:08;53.67;;;31.00;;
4839;SDS011;2434;48.486;7.964;2024-01-11T10:29:36;64.57;;;33.60;;
4839;SDS011;2434;48.486;7.964;2024-01-11T10:32:04;63.80;;;33.67;;
4839;SDS011;2434;48.486;7.964;2024-01-11T10:34:33;55.47;;;30.93;;
4839;SDS011;2434;48.486;7.964;2024-01-11T10:37:03;57.30;;;30.70;;
4839;SDS011;2434;48.486;7.964;2024-01-11T10:39:33;58.00;;;32.03;;
4839;SDS011;2434;48.486;7.964;2024-01-11T10:42:04;50.23;;;27.70;;
4839;SDS011;2434;48.486;7.964;2024-01-11T10:44:34;61.87;;;31.47;;
4839;SDS011;2434;48.486;7.964;2024-01-11T10:47:03;71.90;;;31.87;;
4839;SDS011;2434;48.486;7.964;2024-01-11T10:49:33;59.23;;;33.00;;
4839;SDS011;2434;48.486;7.964;2024-01-11T10:52:05;64.40;;;35.27;;
4839;SDS011;2434;48.486;7.964;2024-01-11T10:54:37;61.73;;;34.83;;
4839;SDS011;2434;48.486;7.964;2024-01-11T10:57:09;66.00;;;34.33;;
4839;SDS011;2434;48.486;7.964;2024-01-11T10:59:39;62.37;;;32.50;;
4839;SDS011;2434;48.486;7.964;2024-01-11T11:02:10;64.50;;;34.10;;
4839;SDS011;2434;48.486;7.964;2024-01-11T11:04:41;60.77;;;32.90;;
4839;SDS011;2434;48.486;7.964;2024-01-11T11:07:09;58.87;;;30.93;;
4839;SDS011;2434;48.486;7.964;2024-01-11T11:09:41;59.93;;;32.83;;
4839;SDS011;2434;48.486;7.964;2024-01-11T11:12:12;68.73;;;35.47;;
4839;SDS011;2434;48.486;7.964;2024-01-11T11:14:40;59.37;;;33.27;;
4839;SDS011;2434;48.486;7.964;2024-01-11T11:17:10;60.17;;;33.97;;
4839;SDS011;2434;48.486;7.964;2024-01-11T11:19:38;61.37;;;34.43;;
4839;SDS011;2434;48.486;7.964;2024-01-11T11:22:06;61.67;;;33.33;;
4839;SDS011;2434;48.486;7.964;2024-01-11T11:24:35;72.20;;;34.30;;
4839;SDS011;2434;48.486;7.964;2024-01-11T11:27:04;66.23;;;34.23;;
4839;SDS011;2434;48.486;7.964;2024-01-11T11:29:33;66.33;;;31.83;;
4839;SDS011;2434;48.486;7.964;2024-01-11T11:32:02;62.67;;;32.80;;
4839;SDS011;2434;48.486;7.964;2024-01-11T11:34:40;59.53;;;32.57;;
4839;SDS011;2434;48.486;7.964;2024-01-11T11:37:11;54.50;;;32.03;;
4839;SDS011;2434;48.486;7.964;2024-01-11T11:39:39;66.73;;;34.67;;
4839;SDS011;2434;48.486;7.964;2024-01-11T11:42:10;54.70;;;33.60;;
4839;SDS011;2434;48.486;7.964;2024-01-11T11:44:47;63.97;;;34.87;;
4839;SDS011;2434;48.486;7.964;2024-01-11T11:47:18;61.63;;;34.43;;
4839;SDS011;2434;48.486;7.964;2024-01-11T11:49:52;67.73;;;34.57;;
4839;SDS011;2434;48.486;7.964;2024-01-11T11:52:25;68.83;;;35.80;;
4839;SDS011;2434;48.486;7.964;2024-01-11T11:54:54;76.47;;;35.73;;
4839;SDS011;2434;48.486;7.964;2024-01-11T11:57:24;70.40;;;37.80;;
4839;SDS011;2434;48.486;7.964;2024-01-11T11:59:55;68.20;;;35.83;;
4839;SDS011;2434;48.486;7.964;2024-01-11T12:02:25;72.17;;;34.97;;
4839;SDS011;2434;48.486;7.964;2024-01-11T12:04:54;71.53;;;35.93;;
4839;SDS011;2434;48.486;7.964;2024-01-11T12:07:22;63.97;;;35.00;;
4839;SDS011;2434;48.486;7.964;2024-01-11T12:09:51;72.20;;;38.10;;
4839;SDS011;2434;48.486;7.964;2024-01-11T12:12:19;71.10;;;35.73;;
4839;SDS011;2434;48.486;7.964;2024-01-11T12:14:49;67.00;;;33.97;;
4839;SDS011;2434;48.486;7.964;2024-01-11T12:17:18;69.83;;;36.17;;
4839;SDS011;2434;48.486;7.964;2024-01-11T12:19:46;59.37;;;34.03;;
4839;SDS011;2434;48.486;7.964;2024-01-11T12:22:14;103.43;;;45.30;;
4839;SDS011;2434;48.486;7.964;2024-01-11T12:24:42;69.80;;;35.00;;
4839;SDS011;2434;48.486;7.964;2024-01-11T12:27:11;71.00;;;36.17;;
4839;SDS011;2434;48.486;7.964;2024-01-11T12:29:39;67.97;;;37.67;;
4839;SDS011;2434;48.486;7.964;2024-01-11T12:32:22;59.17;;;34.23;;
4839;SDS011;2434;48.486;7.964;2024-01-11T12:34:50;62.97;;;35.93;;
4839;SDS011;2434;48.486;7.964;2024-01-11T12:37:20;65.60;;;35.33;;
4839;SDS011;2434;48.486;7.964;2024-01-11T12:39:49;69.50;;;35.97;;
4839;SDS011;2434;48.486;7.964;2024-01-11T12:42:23;68.50;;;35.17;;
4839;SDS011;2434;48.486;7.964;2024-01-11T12:44:52;64.10;;;33.63;;
4839;SDS011;2434;48.486;7.964;2024-01-11T12:47:24;64.57;;;34.87;;
4839;SDS011;2434;48.486;7.964;2024-01-11T12:49:52;67.63;;;37.17;;
4839;SDS011;2434;48.486;7.964;2024-01-11T12:52:20;62.47;;;34.97;;
4839;SDS011;2434;48.486;7.964;2024-01-11T12:54:51;61.67;;;35.03;;
4839;SDS011;2434;48.486;7.964;2024-01-11T12:57:20;65.20;;;33.87;;
4839;SDS011;2434;48.486;7.964;2024-01-11T12:59:49;68.63;;;34.57;;
4839;SDS011;2434;48.486;7.964;2024-01-11T13:02:17;65.50;;;36.97;;
4839;SDS011;2434;48.486;7.964;2024-01-11T13:04:47;66.23;;;35.67;;
4839;SDS011;2434;48.486;7.964;2024-01-11T13:07:18;69.40;;;37.23;;
4839;SDS011;2434;48.486;7.964;2024-01-11T13:09:49;64.03;;;35.73;;
4839;SDS011;2434;48.486;7.964;2024-01-11T13:12:17;61.60;;;35.53;;
4839;SDS011;2434;48.486;7.964;2024-01-11T13:14:47;63.40;;;34.63;;
4839;SDS011;2434;48.486;7.964;2024-01-11T13:17:17;67.10;;;35.50;;
4839;SDS011;2434;48.486;7.964;2024-01-11T13:19:45;57.57;;;33.37;;
4839;SDS011;2434;48.486;7.964;2024-01-11T13:22:14;63.10;;;35.80;;
4839;SDS011;2434;48.486;7.964;2024-01-11T13:24:42;66.83;;;36.80;;
4839;SDS011;2434;48.486;7.964;2024-01-11T13:27:10;62.97;;;36.70;;
4839;SDS011;2434;48.486;7.964;2024-01-11T13:29:38;72.87;;;38.13;;
4839;SDS011;2434;48.486;7.964;2024-01-11T13:32:06;63.50;;;36.30;;
4839;SDS011;2434;48.486;7.964;2024-01-11T13:34:37;62.07;;;35.60;;
4839;SDS011;2434;48.486;7.964;2024-01-11T13:37:05;62.50;;;35.13;;
4839;SDS011;2434;48.486;7.964;2024-01-11T13:39:34;67.23;;;35.53;;
4839;SDS011;2434;48.486;7.964;2024-01-11T13:42:02;59.03;;;33.20;;
4839;SDS011;2434;48.486;7.964;2024-01-11T13:44:35;65.50;;;33.70;;
4839;SDS011;2434;48.486;7.964;2024-01-11T13:47:03;67.10;;;35.80;;
4839;SDS011;2434;48.486;7.964;2024-01-11T13:49:31;58.03;;;33.07;;
4839;SDS011;2434;48.486;7.964;2024-01-11T13:52:00;59.87;;;33.37;;
4839;SDS011;2434;48.486;7.964;2024-01-11T13:54:30;60.73;;;34.57;;
4839;SDS011;2434;48.486;7.964;2024-01-11T13:57:00;65.50;;;35.77;;
4839;SDS011;2434;48.486;7.964;2024-01-11T13:59:29;64.20;;;35.50;;
4839;SDS011;2434;48.486;7.964;2024-01-11T14:01:57;56.87;;;33.77;;
4839;SDS011;2434;48.486;7.964;2024-01-11T14:04:25;65.47;;;34.57;;
4839;SDS011;2434;48.486;7.964;2024-01-11T14:06:53;56.30;;;33.00;;
4839;SDS011;2434;48.486;7.964;2024-01-11T14:09:22;65.43;;;35.77;;
4839;SDS011;2434;48.486;7.964;2024-01-11T14:11:50;69.07;;;36.50;;
4839;SDS011;2434;48.486;7.964;2024-01-11T14:14:19;58.93;;;34.80;;
4839;SDS011;2434;48.486;7.964;2024-01-11T14:16:48;64.40;;;34.00;;
4839;SDS011;2434;48.486;7.964;2024-01-11T14:19:17;63.27;;;34.47;;
4839;SDS011;2434;48.486;7.964;2024-01-11T14:21:45;63.40;;;33.87;;
4839;SDS011;2434;48.486;7.964;2024-01-11T14:24:14;65.37;;;37.00;;
4839;SDS011;2434;48.486;7.964;2024-01-11T14:26:57;64.30;;;36.07;;
4839;SDS011;2434;48.486;7.964;2024-01-11T14:29:27;64.20;;;35.37;;
4839;SDS011;2434;48.486;7.964;2024-01-11T14:31:59;64.83;;;34.83;;
4839;SDS011;2434;48.486;7.964;2024-01-11T14:34:27;66.87;;;34.40;;
4839;SDS011;2434;48.486;7.964;2024-01-11T14:36:58;62.20;;;34.10;;
4839;SDS011;2434;48.486;7.964;2024-01-11T14:39:28;62.93;;;34.37;;
4839;SDS011;2434;48.486;7.964;2024-01-11T14:41:56;55.23;;;32.73;;
4839;SDS011;2434;48.486;7.964;2024-01-11T14:44:24;66.00;;;36.40;;
4839;SDS011;2434;48.486;7.964;2024-01-11T14:46:53;70.53;;;36.97;;
4839;SDS011;2434;48.486;7.964;2024-01-11T14:49:21;57.57;;;33.47;;
4839;SDS011;2434;48.486;7.964;2024-01-11T14:51:51;65.03;;;35.37;;
4839;SDS011;2434;48.486;7.964;2024-01-11T14:54:19;64.83;;;33.67;;
4839;SDS011;2434;48.486;7.964;2024-01-11T14:56:47;59.03;;;33.93;;
4839;SDS011;2434;48.486;7.964;2024-01-11T14:59:15;57.77;;;33.67;;